Aviation Digital Data Service (ADDS)

Output produced by TAFs form (1958 UTC 25 February 2018)
found at http://aviationweather.gov/adds/tafs/
 
Forecast for: RJOA (NEW HIROSHIMA , JP)
Text: TAF RJOA 251710Z 2518/2700 12004KT 3000 BR FEW002 SCT005 BKN008
Forecast period: 1800 to 2300 UTC 25 February 2018
Forecast type: FROM: standard forecast or significant change
Winds: from the ESE (120 degrees) at 5 MPH (4 knots; 2.1 m/s)
Visibility: 1.86 miles (2.99 km)
Ceiling: 800 feet AGL
Clouds: few clouds at 200 feet AGL
scattered clouds at 500 feet AGL
broken clouds at 800 feet AGL
Weather: BR  (mist)
Text: TEMPO 2518/2523 1500 BR BCFG FEW000 SCT003 BKN005
Forecast period: 1800 to 2300 UTC 25 February 2018
Forecast type: TEMPORARY: The following changes expected for less than half the time period
Visibility: 0.93 miles (1.50 km)
Ceiling: 500 feet AGL
Clouds: few clouds at 0 feet AGL
scattered clouds at 300 feet AGL
broken clouds at 500 feet AGL
Weather: BR BCFG  (mist, patches of fog)
Text: BECMG 2523/2601 34005KT 9999 NSW FEW025
Forecast period: 2300 UTC 25 February 2018 to 0000 UTC 27 February 2018
Forecast type: BECOMING: Conditions expected to become as follows by 0100 UTC 26 February 2018
Winds: from the NNW (340 degrees) at 6 MPH (5 knots; 2.6 m/s)
Visibility: 6 or more miles (10+ km)
Clouds: few clouds at 2500 feet AGL
Weather: NSW  (no significant weather)